sensor_id;sensor_type;location;lat;lon;timestamp;P1;durP1;ratioP1;P2;durP2;ratioP2
49556;SDS011;35462;45.048;7.666;2023-05-07T00:10:29;3.13;;;2.28;;
49556;SDS011;35462;45.048;7.666;2023-05-07T00:25:33;3.20;;;2.25;;
49556;SDS011;35462;45.048;7.666;2023-05-07T00:40:37;1.92;;;1.45;;
49556;SDS011;35462;45.048;7.666;2023-05-07T00:55:41;1.70;;;1.55;;
49556;SDS011;35462;45.048;7.666;2023-05-07T01:10:45;3.03;;;1.58;;
49556;SDS011;35462;45.048;7.666;2023-05-07T01:25:51;2.67;;;1.42;;
49556;SDS011;35462;45.048;7.666;2023-05-07T01:40:58;2.75;;;1.83;;
49556;SDS011;35462;45.048;7.666;2023-05-07T01:56:02;3.65;;;2.47;;
49556;SDS011;35462;45.048;7.666;2023-05-07T02:11:07;5.93;;;3.28;;
49556;SDS011;35462;45.048;7.666;2023-05-07T02:26:12;3.25;;;2.40;;
49556;SDS011;35462;45.048;7.666;2023-05-07T02:41:16;3.17;;;2.38;;
49556;SDS011;35462;45.048;7.666;2023-05-07T02:56:20;4.07;;;3.17;;
49556;SDS011;35462;45.048;7.666;2023-05-07T03:11:24;6.00;;;4.40;;
49556;SDS011;35462;45.048;7.666;2023-05-07T03:26:28;6.72;;;5.20;;
49556;SDS011;35462;45.048;7.666;2023-05-07T03:41:33;7.22;;;4.53;;
49556;SDS011;35462;45.048;7.666;2023-05-07T03:56:38;6.97;;;5.63;;
49556;SDS011;35462;45.048;7.666;2023-05-07T04:11:42;8.10;;;5.97;;
49556;SDS011;35462;45.048;7.666;2023-05-07T04:26:48;6.93;;;5.75;;
49556;SDS011;35462;45.048;7.666;2023-05-07T04:41:52;5.68;;;4.00;;
49556;SDS011;35462;45.048;7.666;2023-05-07T04:56:57;6.95;;;3.67;;
49556;SDS011;35462;45.048;7.666;2023-05-07T05:12:01;6.45;;;3.80;;
49556;SDS011;35462;45.048;7.666;2023-05-07T05:27:06;6.07;;;4.43;;
49556;SDS011;35462;45.048;7.666;2023-05-07T05:42:10;10.13;;;6.07;;
49556;SDS011;35462;45.048;7.666;2023-05-07T05:57:14;8.68;;;6.63;;
49556;SDS011;35462;45.048;7.666;2023-05-07T06:12:20;10.35;;;8.60;;
49556;SDS011;35462;45.048;7.666;2023-05-07T06:27:25;8.10;;;6.70;;
49556;SDS011;35462;45.048;7.666;2023-05-07T06:42:30;8.38;;;7.55;;
49556;SDS011;35462;45.048;7.666;2023-05-07T06:57:37;10.20;;;7.80;;
49556;SDS011;35462;45.048;7.666;2023-05-07T07:12:42;8.75;;;7.53;;
49556;SDS011;35462;45.048;7.666;2023-05-07T07:27:47;8.55;;;6.20;;
49556;SDS011;35462;45.048;7.666;2023-05-07T07:42:53;9.07;;;6.78;;
49556;SDS011;35462;45.048;7.666;2023-05-07T07:57:57;10.02;;;6.32;;
49556;SDS011;35462;45.048;7.666;2023-05-07T08:13:01;7.65;;;5.97;;
49556;SDS011;35462;45.048;7.666;2023-05-07T08:28:08;8.75;;;5.50;;
49556;SDS011;35462;45.048;7.666;2023-05-07T08:43:13;5.43;;;4.63;;
49556;SDS011;35462;45.048;7.666;2023-05-07T08:58:19;3.95;;;3.30;;
49556;SDS011;35462;45.048;7.666;2023-05-07T09:13:23;6.80;;;3.63;;
49556;SDS011;35462;45.048;7.666;2023-05-07T09:28:28;5.13;;;2.83;;
49556;SDS011;35462;45.048;7.666;2023-05-07T09:43:34;4.03;;;3.03;;
49556;SDS011;35462;45.048;7.666;2023-05-07T09:58:39;5.70;;;4.30;;
49556;SDS011;35462;45.048;7.666;2023-05-07T10:13:45;6.45;;;3.97;;
49556;SDS011;35462;45.048;7.666;2023-05-07T10:28:50;4.50;;;2.95;;
49556;SDS011;35462;45.048;7.666;2023-05-07T10:43:59;6.15;;;4.15;;
49556;SDS011;35462;45.048;7.666;2023-05-07T11:29:41;6.53;;;3.38;;
49556;SDS011;35462;45.048;7.666;2023-05-07T11:44:50;7.90;;;3.78;;
49556;SDS011;35462;45.048;7.666;2023-05-07T11:59:55;6.10;;;3.75;;
49556;SDS011;35462;45.048;7.666;2023-05-07T12:15:00;6.57;;;3.10;;
49556;SDS011;35462;45.048;7.666;2023-05-07T12:30:04;3.35;;;2.53;;
49556;SDS011;35462;45.048;7.666;2023-05-07T12:45:10;5.78;;;3.17;;
49556;SDS011;35462;45.048;7.666;2023-05-07T13:00:15;5.40;;;3.28;;
49556;SDS011;35462;45.048;7.666;2023-05-07T13:15:19;5.40;;;3.33;;
49556;SDS011;35462;45.048;7.666;2023-05-07T13:30:23;4.03;;;2.83;;
49556;SDS011;35462;45.048;7.666;2023-05-07T13:45:28;5.05;;;3.08;;
49556;SDS011;35462;45.048;7.666;2023-05-07T14:00:33;3.88;;;3.10;;
49556;SDS011;35462;45.048;7.666;2023-05-07T14:15:37;6.15;;;3.10;;
49556;SDS011;35462;45.048;7.666;2023-05-07T14:30:41;7.65;;;3.60;;
49556;SDS011;35462;45.048;7.666;2023-05-07T14:45:45;4.47;;;3.50;;
49556;SDS011;35462;45.048;7.666;2023-05-07T15:00:49;7.30;;;2.75;;
49556;SDS011;35462;45.048;7.666;2023-05-07T15:15:53;4.72;;;2.88;;
49556;SDS011;35462;45.048;7.666;2023-05-07T15:30:57;4.38;;;3.40;;
49556;SDS011;35462;45.048;7.666;2023-05-07T15:46:01;5.72;;;3.60;;
49556;SDS011;35462;45.048;7.666;2023-05-07T16:01:04;6.35;;;4.32;;
49556;SDS011;35462;45.048;7.666;2023-05-07T16:16:08;5.80;;;4.10;;
49556;SDS011;35462;45.048;7.666;2023-05-07T16:31:12;4.50;;;4.07;;
49556;SDS011;35462;45.048;7.666;2023-05-07T16:46:16;4.70;;;3.50;;
49556;SDS011;35462;45.048;7.666;2023-05-07T17:01:20;4.05;;;3.55;;
49556;SDS011;35462;45.048;7.666;2023-05-07T17:16:24;3.22;;;2.92;;
49556;SDS011;35462;45.048;7.666;2023-05-07T17:31:28;4.13;;;2.92;;
49556;SDS011;35462;45.048;7.666;2023-05-07T17:46:32;9.30;;;4.40;;
49556;SDS011;35462;45.048;7.666;2023-05-07T18:01:36;13.88;;;11.05;;
49556;SDS011;35462;45.048;7.666;2023-05-07T18:16:40;7.32;;;5.07;;
49556;SDS011;35462;45.048;7.666;2023-05-07T18:31:44;8.88;;;5.05;;
49556;SDS011;35462;45.048;7.666;2023-05-07T18:46:48;6.60;;;5.38;;
49556;SDS011;35462;45.048;7.666;2023-05-07T19:01:52;7.35;;;4.90;;
49556;SDS011;35462;45.048;7.666;2023-05-07T19:16:56;9.75;;;8.23;;
49556;SDS011;35462;45.048;7.666;2023-05-07T19:32:00;6.22;;;4.50;;
49556;SDS011;35462;45.048;7.666;2023-05-07T19:47:05;7.45;;;4.80;;
49556;SDS011;35462;45.048;7.666;2023-05-07T20:02:09;6.47;;;4.32;;
49556;SDS011;35462;45.048;7.666;2023-05-07T20:17:14;6.40;;;4.97;;
49556;SDS011;35462;45.048;7.666;2023-05-07T20:32:18;7.95;;;5.30;;
49556;SDS011;35462;45.048;7.666;2023-05-07T20:47:22;7.13;;;4.93;;
49556;SDS011;35462;45.048;7.666;2023-05-07T21:02:26;5.60;;;4.20;;
49556;SDS011;35462;45.048;7.666;2023-05-07T21:17:30;7.32;;;5.57;;
49556;SDS011;35462;45.048;7.666;2023-05-07T21:32:35;6.43;;;5.35;;
49556;SDS011;35462;45.048;7.666;2023-05-07T21:47:39;5.63;;;4.72;;
49556;SDS011;35462;45.048;7.666;2023-05-07T22:02:43;9.13;;;7.95;;
49556;SDS011;35462;45.048;7.666;2023-05-07T22:17:47;12.50;;;9.45;;
49556;SDS011;35462;45.048;7.666;2023-05-07T22:32:51;14.60;;;11.57;;
49556;SDS011;35462;45.048;7.666;2023-05-07T22:47:55;15.30;;;12.35;;
49556;SDS011;35462;45.048;7.666;2023-05-07T23:02:59;12.20;;;10.85;;
49556;SDS011;35462;45.048;7.666;2023-05-07T23:18:02;10.70;;;5.68;;
49556;SDS011;35462;45.048;7.666;2023-05-07T23:33:06;7.18;;;5.40;;
49556;SDS011;35462;45.048;7.666;2023-05-07T23:48:10;10.68;;;5.78;;
